createdAt,value
2023-01-13T00:00:36.501Z,70.33
2023-01-13T00:03:05.509Z,70.82
2023-01-13T00:05:33.457Z,70.78
2023-01-13T00:08:01.464Z,70.64
2023-01-13T00:10:31.289Z,69.60
2023-01-13T00:12:59.207Z,70.47
2023-01-13T00:15:27.225Z,70.70
2023-01-13T00:17:55.809Z,70.78
2023-01-13T00:20:23.715Z,70.41
2023-01-13T00:22:51.865Z,70.35
2023-01-13T00:25:19.865Z,70.36
2023-01-13T00:27:49.170Z,70.85
2023-01-13T00:30:17.534Z,70.33
2023-01-13T00:32:46.074Z,70.47
2023-01-13T00:35:14.043Z,70.61
2023-01-13T00:37:42.085Z,70.63
2023-01-13T00:40:12.055Z,70.44
2023-01-13T00:42:57.256Z,70.74
2023-01-13T00:45:27.141Z,70.88
2023-01-13T00:47:55.166Z,71.05
2023-01-13T00:50:23.051Z,71.15
2023-01-13T00:52:51.451Z,71.25
2023-01-13T00:55:19.342Z,71.12
2023-01-13T00:57:47.485Z,71.40
2023-01-13T01:00:16.520Z,70.98
2023-01-13T01:02:45.929Z,71.16
2023-01-13T01:05:14.307Z,71.30
2023-01-13T01:07:42.438Z,71.03
2023-01-13T01:10:11.523Z,71.16
2023-01-13T01:12:40.209Z,71.32
2023-01-13T01:15:10.097Z,71.33
2023-01-13T01:17:38.353Z,71.33
2023-01-13T01:20:09.376Z,71.29
2023-01-13T01:22:37.333Z,71.10
2023-01-13T01:25:05.671Z,71.28
2023-01-13T01:27:33.932Z,71.32
2023-01-13T01:30:01.869Z,70.98
2023-01-13T01:32:30.173Z,70.79
2023-01-13T01:34:58.138Z,70.80
2023-01-13T01:37:27.765Z,71.31
2023-01-13T01:39:56.046Z,70.00
2023-01-13T01:42:42.012Z,70.16
2023-01-13T01:45:17.256Z,69.99
2023-01-13T01:47:49.311Z,70.35
2023-01-13T01:50:19.845Z,70.36
2023-01-13T01:52:56.004Z,70.71
2023-01-13T01:55:28.913Z,70.74
2023-01-13T01:57:59.811Z,70.96
2023-01-13T02:00:29.930Z,70.92
2023-01-13T02:03:00.183Z,71.48
2023-01-13T02:05:28.103Z,71.07
2023-01-13T02:08:00.430Z,71.30
2023-01-13T02:10:30.455Z,71.14
2023-01-13T02:13:01.108Z,70.64
2023-01-13T02:15:37.229Z,71.10
2023-01-13T02:18:23.938Z,71.30
2023-01-13T02:21:13.676Z,71.12
2023-01-13T02:24:23.672Z,70.45
2023-01-13T02:27:26.290Z,70.54
2023-01-13T02:30:23.612Z,70.81
2023-01-13T02:33:02.238Z,70.85
2023-01-13T02:35:37.034Z,71.01
2023-01-13T02:38:06.525Z,71.17
2023-01-13T02:40:41.112Z,70.92
2023-01-13T02:43:33.085Z,71.02
2023-01-13T02:46:06.969Z,71.05
2023-01-13T02:48:37.201Z,70.81
2023-01-13T02:51:09.191Z,71.43
2023-01-13T02:53:43.377Z,71.12
2023-01-13T02:56:12.456Z,71.07
2023-01-13T02:58:43.025Z,71.03
2023-01-13T03:01:12.637Z,71.08
2023-01-13T03:03:40.790Z,71.31
2023-01-13T03:06:32.496Z,71.68
2023-01-13T03:09:08.151Z,71.94
2023-01-13T03:11:46.321Z,71.96
2023-01-13T03:14:27.522Z,71.76
2023-01-13T03:17:18.967Z,71.66
2023-01-13T03:19:58.413Z,71.51
2023-01-13T03:22:33.419Z,71.47
2023-01-13T03:25:08.391Z,71.49
2023-01-13T03:27:46.933Z,71.72
2023-01-13T03:30:20.619Z,71.83
2023-01-13T03:32:54.409Z,72.08
2023-01-13T03:35:27.185Z,71.80
2023-01-13T03:38:01.966Z,71.77
2023-01-13T03:40:34.673Z,72.24
2023-01-13T03:43:24.333Z,72.08
2023-01-13T03:45:59.143Z,71.85
2023-01-13T03:48:31.327Z,71.42
2023-01-13T03:51:07.463Z,71.63
2023-01-13T03:53:40.785Z,71.90
2023-01-13T03:56:17.284Z,71.86
2023-01-13T03:58:50.237Z,71.76
2023-01-13T04:01:22.884Z,71.86
2023-01-13T04:03:59.015Z,72.13
2023-01-13T04:06:38.188Z,71.97
2023-01-13T04:09:13.462Z,72.61
2023-01-13T04:11:45.591Z,72.06
2023-01-13T04:14:15.383Z,72.49
2023-01-13T04:16:44.629Z,72.40
2023-01-13T04:19:14.496Z,72.41
2023-01-13T04:21:43.338Z,72.73
2023-01-13T04:24:11.662Z,72.71
2023-01-13T04:26:40.231Z,72.97
2023-01-13T04:29:08.550Z,72.89
2023-01-13T04:31:36.928Z,72.91
2023-01-13T04:34:05.777Z,72.57
2023-01-13T04:36:36.067Z,73.05
2023-01-13T04:39:04.904Z,73.09
2023-01-13T04:41:53.768Z,73.33
2023-01-13T04:44:21.701Z,73.26
2023-01-13T04:46:50.092Z,73.14
2023-01-13T04:49:18.523Z,72.70
2023-01-13T04:51:47.872Z,72.95
2023-01-13T04:54:16.283Z,72.83
2023-01-13T04:56:44.307Z,73.25
2023-01-13T04:59:12.851Z,72.32
2023-01-13T05:01:40.877Z,72.64
2023-01-13T05:04:09.692Z,72.65
2023-01-13T05:06:37.695Z,72.81
2023-01-13T05:09:06.994Z,72.51
2023-01-13T05:11:52.800Z,72.32
2023-01-13T05:14:38.379Z,72.17
2023-01-13T05:17:06.972Z,72.48
2023-01-13T05:19:37.188Z,72.20
2023-01-13T05:22:23.522Z,72.60
2023-01-13T05:25:06.768Z,72.05
2023-01-13T05:27:35.908Z,71.91
2023-01-13T05:30:04.468Z,71.82
2023-01-13T05:32:34.087Z,72.46
2023-01-13T05:35:02.424Z,72.03
2023-01-13T05:37:30.362Z,71.84
2023-01-13T05:40:17.645Z,71.52
2023-01-13T05:43:03.353Z,72.11
2023-01-13T05:45:32.441Z,71.88
2023-01-13T05:48:00.898Z,71.95
2023-01-13T05:50:29.001Z,71.79
2023-01-13T05:52:57.348Z,71.87
2023-01-13T05:55:26.799Z,71.62
2023-01-13T05:57:55.123Z,72.24
2023-01-13T06:00:23.711Z,72.37
2023-01-13T06:02:51.722Z,71.66
2023-01-13T06:05:19.864Z,71.44
2023-01-13T06:07:47.810Z,71.43
2023-01-13T06:10:15.742Z,71.65
2023-01-13T06:12:45.046Z,72.09
2023-01-13T06:15:13.068Z,72.16
2023-01-13T06:17:41.085Z,71.70
2023-01-13T06:20:10.492Z,71.31
2023-01-13T06:22:41.368Z,71.95
2023-01-13T06:25:13.801Z,72.06
2023-01-13T06:27:42.662Z,72.25
2023-01-13T06:30:13.105Z,72.13
2023-01-13T06:32:45.265Z,71.43
2023-01-13T06:35:16.873Z,71.87
2023-01-13T06:37:46.354Z,72.11
2023-01-13T06:40:15.879Z,71.68
2023-01-13T06:43:02.005Z,71.65
2023-01-13T06:45:32.208Z,71.71
2023-01-13T06:48:01.129Z,71.43
2023-01-13T06:50:30.817Z,71.68
2023-01-13T06:52:58.638Z,71.56
2023-01-13T06:55:26.768Z,71.62
2023-01-13T06:57:56.348Z,71.69
2023-01-13T07:00:25.532Z,71.95
2023-01-13T07:02:57.538Z,72.04
2023-01-13T07:05:25.385Z,72.14
2023-01-13T07:07:53.333Z,71.64
2023-01-13T07:10:23.689Z,71.73
2023-01-13T07:13:11.367Z,71.92
2023-01-13T07:15:39.713Z,72.02
2023-01-13T07:18:09.283Z,72.31
2023-01-13T07:20:37.165Z,72.54
2023-01-13T07:23:05.807Z,72.06
2023-01-13T07:25:34.639Z,72.64
2023-01-13T07:28:02.714Z,72.64
2023-01-13T07:30:30.984Z,72.32
2023-01-13T07:32:59.151Z,72.76
2023-01-13T07:35:29.738Z,73.05
2023-01-13T07:37:58.070Z,72.40
2023-01-13T07:40:25.939Z,73.32
2023-01-13T07:43:19.800Z,73.12
2023-01-13T07:45:47.938Z,72.65
2023-01-13T07:48:16.275Z,73.34
2023-01-13T07:50:46.174Z,72.52
2023-01-13T07:53:14.294Z,72.52
2023-01-13T07:55:43.814Z,72.61
2023-01-13T07:58:13.201Z,73.04
2023-01-13T08:00:41.433Z,73.03
2023-01-13T08:03:09.358Z,72.56
2023-01-13T08:05:37.558Z,72.56
2023-01-13T08:08:07.593Z,72.60
2023-01-13T08:10:35.987Z,72.59
2023-01-13T08:13:20.437Z,72.85
2023-01-13T08:15:49.923Z,72.72
2023-01-13T08:18:20.956Z,73.75
2023-01-13T08:20:49.852Z,74.01
2023-01-13T08:23:19.479Z,74.67
2023-01-13T08:25:47.540Z,74.91
2023-01-13T08:28:17.005Z,74.39
2023-01-13T08:30:45.369Z,74.65
2023-01-13T08:33:14.613Z,76.00
2023-01-13T08:35:43.560Z,77.53
2023-01-13T08:38:11.745Z,78.26
2023-01-13T08:40:42.163Z,79.24
2023-01-13T08:43:10.064Z,79.85
2023-01-13T08:45:38.051Z,80.51
2023-01-13T08:48:06.972Z,80.46
2023-01-13T08:50:35.926Z,80.68
2023-01-13T08:53:03.963Z,81.49
2023-01-13T08:55:31.896Z,81.62
2023-01-13T08:58:14.660Z,82.08
2023-01-13T09:00:44.982Z,82.29
2023-01-13T09:03:12.949Z,82.95
2023-01-13T09:05:40.909Z,83.40
2023-01-13T09:08:08.797Z,82.80
2023-01-13T09:10:36.967Z,83.80
2023-01-13T09:13:14.613Z,84.08
2023-01-13T09:15:45.779Z,86.07
2023-01-13T09:18:14.819Z,87.51
2023-01-13T09:20:44.598Z,87.18
2023-01-13T09:23:12.542Z,87.76
2023-01-13T09:25:41.652Z,87.71
2023-01-13T09:28:11.308Z,88.27
2023-01-13T09:30:39.241Z,88.43
2023-01-13T09:33:24.963Z,89.39
2023-01-13T09:35:52.821Z,89.19
2023-01-13T09:38:21.174Z,88.80
2023-01-13T09:40:50.802Z,88.44
2023-01-13T09:43:44.547Z,88.00
2023-01-13T09:46:32.007Z,88.41
2023-01-13T09:49:04.149Z,89.07
2023-01-13T09:51:39.516Z,87.73
2023-01-13T09:54:16.972Z,88.34
2023-01-13T09:56:45.115Z,86.49
2023-01-13T09:59:16.289Z,85.68
2023-01-13T10:01:57.777Z,84.88
2023-01-13T10:04:26.896Z,84.72
2023-01-13T10:07:00.052Z,84.65
2023-01-13T10:09:34.403Z,83.87
2023-01-13T10:12:21.146Z,83.52
2023-01-13T10:14:55.442Z,83.28
2023-01-13T10:17:32.211Z,83.64
2023-01-13T10:20:13.705Z,82.98
2023-01-13T10:23:00.744Z,83.24
2023-01-13T10:25:58.392Z,83.99
2023-01-13T10:28:26.780Z,82.81
2023-01-13T10:30:56.211Z,83.17
2023-01-13T10:33:28.634Z,82.62
2023-01-13T10:36:01.923Z,83.92
2023-01-13T10:38:37.691Z,85.00
2023-01-13T10:41:17.939Z,85.44
2023-01-13T10:43:47.063Z,85.57
2023-01-13T10:46:18.484Z,83.07
2023-01-13T10:48:56.134Z,84.07
2023-01-13T10:51:27.593Z,83.68
2023-01-13T10:53:59.286Z,83.49
2023-01-13T10:56:30.456Z,82.11
2023-01-13T10:59:15.825Z,83.60
2023-01-13T11:02:01.227Z,83.51
2023-01-13T11:04:38.828Z,83.66
2023-01-13T11:07:21.159Z,82.70
2023-01-13T11:09:52.096Z,82.32
2023-01-13T11:12:33.151Z,81.31
2023-01-13T11:15:06.201Z,79.87
2023-01-13T11:17:42.124Z,79.60
2023-01-13T11:20:20.690Z,78.88
2023-01-13T11:22:53.083Z,80.31
2023-01-13T11:25:24.609Z,80.98
2023-01-13T11:27:59.028Z,80.85
2023-01-13T11:30:40.152Z,81.60
2023-01-13T11:33:28.409Z,81.50
2023-01-13T11:36:07.355Z,80.94
2023-01-13T11:38:43.097Z,80.62
2023-01-13T11:41:22.079Z,81.59
2023-01-13T11:43:57.616Z,80.96
2023-01-13T11:46:28.454Z,80.87
2023-01-13T11:48:58.326Z,81.49
2023-01-13T11:51:36.639Z,81.48
2023-01-13T11:54:33.348Z,80.78
2023-01-13T11:57:27.014Z,80.83
2023-01-13T12:00:28.137Z,81.31
2023-01-13T12:03:07.536Z,80.88
2023-01-13T12:05:40.223Z,81.39
2023-01-13T12:08:20.128Z,80.49
2023-01-13T12:11:02.272Z,81.23
2023-01-13T12:13:41.677Z,81.00
2023-01-13T12:16:24.087Z,79.61
2023-01-13T12:19:20.203Z,79.32
2023-01-13T12:22:03.528Z,79.49
2023-01-13T12:24:36.554Z,78.74
2023-01-13T12:27:12.517Z,78.45
2023-01-13T12:29:41.717Z,78.75
2023-01-13T12:32:15.562Z,79.34
2023-01-13T12:34:54.285Z,78.58
2023-01-13T12:37:31.028Z,79.00
2023-01-13T12:40:16.713Z,79.19
2023-01-13T12:43:08.324Z,80.54
2023-01-13T12:45:37.069Z,79.87
2023-01-13T12:48:06.739Z,80.25
2023-01-13T12:50:44.102Z,80.85
2023-01-13T12:53:40.820Z,81.03
2023-01-13T12:56:36.367Z,80.14
2023-01-13T12:59:33.743Z,79.92
2023-01-13T13:02:31.315Z,80.30
2023-01-13T13:05:22.165Z,79.55
2023-01-13T13:07:55.852Z,74.72
2023-01-13T13:10:33.606Z,72.12
2023-01-13T13:13:20.143Z,71.13
2023-01-13T13:15:49.612Z,71.08
2023-01-13T13:18:29.411Z,69.03
2023-01-13T13:21:07.070Z,69.11
2023-01-13T13:23:51.601Z,69.83
2023-01-13T13:26:32.033Z,69.88
2023-01-13T13:29:15.151Z,71.52
2023-01-13T13:32:08.161Z,72.06
2023-01-13T13:34:45.240Z,71.83
2023-01-13T13:38:06.219Z,70.19
2023-01-13T13:40:58.731Z,69.56
2023-01-13T13:43:46.711Z,68.94
2023-01-13T13:46:44.128Z,69.00
2023-01-13T13:49:13.253Z,68.05
2023-01-13T13:51:46.877Z,67.03
2023-01-13T13:54:20.028Z,67.81
2023-01-13T13:56:50.528Z,67.66
2023-01-13T13:59:22.929Z,68.50
2023-01-13T14:02:01.650Z,68.58
2023-01-13T14:04:31.680Z,67.46
2023-01-13T14:07:01.692Z,68.39
2023-01-13T14:09:44.551Z,67.48
2023-01-13T14:12:19.478Z,68.61
2023-01-13T14:14:50.882Z,68.14
2023-01-13T14:17:36.300Z,68.03
2023-01-13T14:20:10.091Z,67.99
2023-01-13T14:22:39.818Z,66.15
2023-01-13T14:25:28.611Z,65.42
2023-01-13T14:27:57.968Z,66.46
2023-01-13T14:30:29.257Z,68.57
2023-01-13T14:32:57.961Z,69.98
2023-01-13T14:35:26.650Z,71.57
2023-01-13T14:38:04.646Z,73.19
2023-01-13T14:40:47.058Z,73.81
2023-01-13T14:43:18.274Z,73.83
2023-01-13T14:45:57.767Z,74.15
2023-01-13T14:48:36.164Z,74.38
2023-01-13T14:51:06.469Z,74.13
2023-01-13T14:53:40.774Z,74.37
2023-01-13T14:56:49.034Z,74.31
2023-01-13T14:59:46.890Z,74.69
2023-01-13T15:02:47.905Z,74.04
2023-01-13T15:05:42.993Z,76.14
2023-01-13T15:08:37.064Z,75.98
2023-01-13T15:11:08.391Z,76.63
2023-01-13T15:13:49.464Z,76.63
2023-01-13T15:16:25.511Z,76.01
2023-01-13T15:18:56.400Z,76.34
2023-01-13T15:21:25.137Z,77.02
2023-01-13T15:23:53.175Z,77.56
2023-01-13T15:26:24.160Z,77.43
2023-01-13T15:28:53.774Z,77.30
2023-01-13T15:31:23.398Z,77.46
2023-01-13T15:33:51.475Z,76.69
2023-01-13T15:36:28.094Z,77.01
2023-01-13T15:38:56.814Z,78.31
2023-01-13T15:41:39.159Z,77.03
2023-01-13T15:44:24.259Z,77.92
2023-01-13T15:46:53.702Z,78.56
2023-01-13T15:49:27.956Z,78.61
2023-01-13T15:51:57.777Z,79.01
2023-01-13T15:54:25.762Z,79.04
2023-01-13T15:56:54.601Z,79.10
2023-01-13T15:59:25.975Z,79.11
2023-01-13T16:01:54.230Z,78.57
2023-01-13T16:04:22.200Z,79.48
2023-01-13T16:06:50.937Z,79.54
2023-01-13T16:09:20.659Z,79.41
2023-01-13T16:11:48.613Z,79.91
2023-01-13T16:14:16.955Z,79.24
2023-01-13T16:16:45.237Z,80.65
2023-01-13T16:19:14.058Z,80.42
2023-01-13T16:21:42.462Z,80.79
2023-01-13T16:24:10.499Z,80.28
2023-01-13T16:26:40.101Z,80.67
2023-01-13T16:29:09.645Z,79.70
2023-01-13T16:31:37.830Z,79.99
2023-01-13T16:34:06.816Z,80.46
2023-01-13T16:36:37.362Z,79.18
2023-01-13T16:39:06.325Z,79.68
2023-01-13T16:41:35.833Z,79.16
2023-01-13T16:44:06.694Z,80.76
2023-01-13T16:46:36.740Z,80.12
2023-01-13T16:49:07.488Z,80.55
2023-01-13T16:51:42.290Z,81.00
2023-01-13T16:54:10.945Z,80.65
2023-01-13T16:56:39.133Z,80.71
2023-01-13T16:59:17.481Z,80.46
2023-01-13T17:01:46.325Z,81.13
2023-01-13T17:04:18.007Z,80.97
2023-01-13T17:06:52.370Z,80.92
2023-01-13T17:09:22.981Z,80.77
2023-01-13T17:11:51.215Z,81.95
2023-01-13T17:14:23.465Z,81.86
2023-01-13T17:16:53.165Z,81.95
2023-01-13T17:19:25.884Z,82.00
2023-01-13T17:21:54.123Z,82.00
2023-01-13T17:24:24.735Z,82.51
2023-01-13T17:26:53.279Z,81.63
2023-01-13T17:29:27.173Z,81.91
2023-01-13T17:31:55.712Z,81.24
2023-01-13T17:34:23.927Z,81.32
2023-01-13T17:36:52.029Z,82.03
2023-01-13T17:39:22.166Z,80.49
2023-01-13T17:41:51.558Z,81.26
2023-01-13T17:44:21.506Z,80.80
2023-01-13T17:46:51.835Z,80.05
2023-01-13T17:49:21.902Z,80.97
2023-01-13T17:51:51.544Z,81.36
2023-01-13T17:54:20.367Z,80.73
2023-01-13T17:56:48.437Z,80.23
2023-01-13T17:59:18.883Z,81.01
2023-01-13T18:01:47.722Z,80.40
2023-01-13T18:04:19.368Z,80.33
2023-01-13T18:06:48.718Z,80.08
2023-01-13T18:09:17.326Z,79.61
2023-01-13T18:11:47.215Z,80.19
2023-01-13T18:14:15.995Z,79.76
2023-01-13T18:16:44.423Z,80.32
2023-01-13T18:19:29.919Z,80.50
2023-01-13T18:22:16.743Z,79.21
2023-01-13T18:25:02.682Z,79.32
2023-01-13T18:27:34.073Z,78.76
2023-01-13T18:30:03.723Z,78.35
2023-01-13T18:32:33.763Z,78.07
2023-01-13T18:35:06.644Z,78.10
2023-01-13T18:37:38.795Z,78.36
2023-01-13T18:40:07.943Z,78.56
2023-01-13T18:42:54.835Z,78.31
2023-01-13T18:45:25.583Z,78.59
2023-01-13T18:47:55.244Z,78.82
2023-01-13T18:50:24.505Z,78.99
2023-01-13T18:52:56.191Z,77.67
2023-01-13T18:55:28.611Z,78.43
2023-01-13T18:57:58.403Z,78.21
2023-01-13T19:00:28.269Z,77.50
2023-01-13T19:05:36.099Z,78.29
2023-01-13T19:08:11.052Z,78.43
2023-01-13T19:10:42.637Z,77.77
2023-01-13T19:13:11.855Z,78.32
2023-01-13T19:15:40.109Z,78.56
2023-01-13T19:18:09.560Z,78.16
2023-01-13T19:20:39.668Z,78.06
2023-01-13T19:23:12.017Z,78.37
2023-01-13T19:25:43.811Z,78.76
2023-01-13T19:28:13.830Z,78.42
2023-01-13T19:30:42.351Z,78.49
2023-01-13T19:33:10.804Z,79.07
2023-01-13T19:35:39.375Z,78.53
2023-01-13T19:38:09.596Z,79.18
2023-01-13T19:40:38.523Z,78.85
2023-01-13T19:43:24.335Z,79.50
2023-01-13T19:45:58.171Z,79.45
2023-01-13T19:48:31.698Z,78.90
2023-01-13T19:51:00.511Z,78.06
2023-01-13T19:53:33.211Z,77.83
2023-01-13T19:56:07.083Z,77.52
2023-01-13T19:58:41.309Z,77.40
2023-01-13T20:01:12.310Z,77.67
2023-01-13T20:03:44.961Z,76.99
2023-01-13T20:06:14.491Z,78.21
2023-01-13T20:08:49.467Z,77.20
2023-01-13T20:11:31.685Z,77.56
2023-01-13T20:14:00.751Z,77.69
2023-01-13T20:16:34.976Z,77.14
2023-01-13T20:19:23.799Z,77.47
2023-01-13T20:21:54.453Z,76.35
2023-01-13T20:24:30.950Z,77.73
2023-01-13T20:27:01.243Z,76.85
2023-01-13T20:29:37.077Z,77.66
2023-01-13T20:32:09.656Z,78.23
2023-01-13T20:34:39.770Z,77.82
2023-01-13T20:37:10.145Z,77.41
2023-01-13T20:39:43.210Z,78.07
2023-01-13T20:42:31.726Z,77.93
2023-01-13T20:45:07.833Z,78.48
2023-01-13T20:47:36.596Z,78.25
2023-01-13T20:50:05.861Z,78.54
2023-01-13T20:52:39.925Z,77.86
2023-01-13T20:55:19.583Z,78.81
2023-01-13T20:58:02.032Z,79.81
2023-01-13T21:00:34.446Z,79.68
2023-01-13T21:03:03.719Z,80.20
2023-01-13T21:05:33.702Z,81.13
2023-01-13T21:08:02.473Z,81.01
2023-01-13T21:10:32.197Z,81.14
2023-01-13T21:13:24.824Z,81.95
2023-01-13T21:15:55.726Z,81.69
2023-01-13T21:18:42.770Z,81.59
2023-01-13T21:21:15.618Z,82.25
2023-01-13T21:23:49.132Z,81.42
2023-01-13T21:26:22.161Z,82.40
2023-01-13T21:28:51.072Z,82.25
2023-01-13T21:31:19.347Z,81.08
2023-01-13T21:33:48.438Z,81.46
2023-01-13T21:36:18.544Z,81.28
2023-01-13T21:38:46.515Z,81.39
2023-01-13T21:41:35.345Z,80.89
2023-01-13T21:44:36.662Z,81.06
2023-01-13T21:47:37.224Z,80.23
2023-01-13T21:50:10.633Z,81.25
2023-01-13T21:52:39.140Z,80.76
2023-01-13T21:55:25.252Z,80.64
2023-01-13T21:57:56.085Z,81.24
2023-01-13T22:00:27.460Z,80.76
2023-01-13T22:03:00.160Z,81.04
2023-01-13T22:05:30.170Z,80.95
2023-01-13T22:07:58.284Z,81.45
2023-01-13T22:10:28.240Z,81.56
2023-01-13T22:12:57.580Z,81.05
2023-01-13T22:15:30.701Z,80.54
2023-01-13T22:17:59.986Z,81.65
2023-01-13T22:20:28.343Z,80.92
2023-01-13T22:22:56.671Z,81.67
2023-01-13T22:25:24.536Z,81.05
2023-01-13T22:27:55.961Z,80.89
2023-01-13T22:30:25.259Z,80.23
2023-01-13T22:32:54.571Z,79.82
2023-01-13T22:35:22.602Z,79.85
2023-01-13T22:37:50.969Z,80.62
2023-01-13T22:40:19.003Z,80.02
2023-01-13T22:42:47.141Z,80.37
2023-01-13T22:45:16.441Z,80.47
2023-01-13T22:47:44.359Z,81.01
2023-01-13T22:50:13.816Z,80.57
2023-01-13T22:52:41.865Z,80.45
2023-01-13T22:55:10.077Z,80.75
2023-01-13T22:57:47.224Z,80.11
2023-01-13T23:00:19.468Z,80.50
2023-01-13T23:02:47.570Z,80.48
2023-01-13T23:05:17.533Z,81.31
2023-01-13T23:07:45.950Z,81.42
2023-01-13T23:10:14.171Z,80.88
2023-01-13T23:12:42.220Z,81.15
2023-01-13T23:15:11.185Z,81.24
2023-01-13T23:17:39.099Z,81.84
2023-01-13T23:20:07.651Z,82.06
2023-01-13T23:22:39.224Z,81.92
2023-01-13T23:25:08.239Z,83.44
2023-01-13T23:27:36.435Z,83.04
2023-01-13T23:30:05.946Z,82.49
2023-01-13T23:32:35.638Z,83.30
2023-01-13T23:35:03.684Z,82.53
2023-01-13T23:37:32.610Z,82.80
2023-01-13T23:40:02.459Z,83.15
2023-01-13T23:42:30.406Z,83.19
2023-01-13T23:44:59.091Z,83.34
2023-01-13T23:47:27.057Z,84.19
2023-01-13T23:49:55.004Z,83.15
2023-01-13T23:52:23.018Z,84.39
2023-01-13T23:54:50.877Z,83.88
2023-01-13T23:57:20.153Z,83.71
2023-01-13T23:59:48.111Z,83.23
